sensor_id;sensor_type;location;lat;lon;timestamp;pressure;altitude;pressure_sealevel;temperature;humidity
56052;BME280;41919;42.648;23.384;2022-12-07T00:00:54;94583.22;;;6.22;83.91
56052;BME280;41919;42.648;23.384;2022-12-07T00:03:19;94523.13;;;5.72;84.17
56052;BME280;41919;42.648;23.384;2022-12-07T00:05:45;94577.91;;;5.46;87.33
56052;BME280;41919;42.648;23.384;2022-12-07T00:08:10;94582.56;;;5.27;90.17
56052;BME280;41919;42.648;23.384;2022-12-07T00:10:35;94583.94;;;5.38;89.87
56052;BME280;41919;42.648;23.384;2022-12-07T00:13:01;94581.78;;;5.19;90.87
56052;BME280;41919;42.648;23.384;2022-12-07T00:15:26;94579.47;;;5.32;90.69
56052;BME280;41919;42.648;23.384;2022-12-07T00:17:51;94570.78;;;5.48;90.17
56052;BME280;41919;42.648;23.384;2022-12-07T00:20:16;94576.78;;;5.48;89.90
56052;BME280;41919;42.648;23.384;2022-12-07T00:22:42;94570.22;;;5.61;89.61
56052;BME280;41919;42.648;23.384;2022-12-07T00:25:07;94570.78;;;5.71;88.46
56052;BME280;41919;42.648;23.384;2022-12-07T00:27:32;94567.06;;;5.74;88.07
56052;BME280;41919;42.648;23.384;2022-12-07T00:29:58;94570.50;;;5.66;88.17
56052;BME280;41919;42.648;23.384;2022-12-07T00:32:23;94567.53;;;5.77;87.96
56052;BME280;41919;42.648;23.384;2022-12-07T00:34:48;94561.78;;;5.82;87.36
56052;BME280;41919;42.648;23.384;2022-12-07T00:37:13;94574.53;;;5.92;87.03
56052;BME280;41919;42.648;23.384;2022-12-07T00:39:39;94569.94;;;6.02;86.49
56052;BME280;41919;42.648;23.384;2022-12-07T00:42:04;94580.25;;;6.10;85.73
56052;BME280;41919;42.648;23.384;2022-12-07T00:44:29;94580.97;;;6.19;85.64
56052;BME280;41919;42.648;23.384;2022-12-07T00:46:55;94576.16;;;6.31;84.78
56052;BME280;41919;42.648;23.384;2022-12-07T00:49:20;94564.09;;;6.38;84.52
56052;BME280;41919;42.648;23.384;2022-12-07T00:51:47;94556.75;;;6.26;84.46
56052;BME280;41919;42.648;23.384;2022-12-07T00:54:13;94562.09;;;6.25;84.70
56052;BME280;41919;42.648;23.384;2022-12-07T00:56:38;94559.06;;;6.36;84.11
56052;BME280;41919;42.648;23.384;2022-12-07T00:59:04;94554.63;;;6.45;83.42
56052;BME280;41919;42.648;23.384;2022-12-07T01:01:30;94558.56;;;6.41;83.76
56052;BME280;41919;42.648;23.384;2022-12-07T01:03:56;94551.03;;;6.46;83.30
56052;BME280;41919;42.648;23.384;2022-12-07T01:06:22;94556.94;;;6.55;83.00
56052;BME280;41919;42.648;23.384;2022-12-07T01:08:47;94555.59;;;6.59;82.73
56052;BME280;41919;42.648;23.384;2022-12-07T01:11:15;94560.09;;;6.65;82.50
56052;BME280;41919;42.648;23.384;2022-12-07T01:13:40;94558.56;;;6.71;82.11
56052;BME280;41919;42.648;23.384;2022-12-07T01:16:07;94556.59;;;6.73;81.89
56052;BME280;41919;42.648;23.384;2022-12-07T01:18:33;94550.25;;;6.75;81.70
56052;BME280;41919;42.648;23.384;2022-12-07T01:23:27;94545.50;;;6.64;81.35
56052;BME280;41919;42.648;23.384;2022-12-07T01:25:59;94547.28;;;6.34;82.26
56052;BME280;41919;42.648;23.384;2022-12-07T01:28:25;94548.25;;;6.18;83.56
56052;BME280;41919;42.648;23.384;2022-12-07T01:31:03;94541.34;;;6.10;83.79
56052;BME280;41919;42.648;23.384;2022-12-07T01:33:30;94548.38;;;5.78;85.78
56052;BME280;41919;42.648;23.384;2022-12-07T01:36:16;94549.06;;;5.72;86.24
56052;BME280;41919;42.648;23.384;2022-12-07T01:38:42;94542.78;;;5.66;87.01
56052;BME280;41919;42.648;23.384;2022-12-07T01:41:07;94544.34;;;5.53;87.58
56052;BME280;41919;42.648;23.384;2022-12-07T01:43:33;94546.31;;;5.50;88.12
56052;BME280;41919;42.648;23.384;2022-12-07T01:45:59;94551.06;;;5.39;88.66
56052;BME280;41919;42.648;23.384;2022-12-07T01:48:29;94544.38;;;5.44;88.79
56052;BME280;41919;42.648;23.384;2022-12-07T01:50:55;94542.47;;;5.38;88.89
56052;BME280;41919;42.648;23.384;2022-12-07T01:53:21;94546.06;;;5.37;89.21
56052;BME280;41919;42.648;23.384;2022-12-07T01:55:50;94539.97;;;5.53;88.94
56052;BME280;41919;42.648;23.384;2022-12-07T01:58:17;94539.97;;;5.76;87.71
56052;BME280;41919;42.648;23.384;2022-12-07T02:00:42;94533.03;;;5.92;87.06
56052;BME280;41919;42.648;23.384;2022-12-07T02:03:30;94539.09;;;6.07;86.06
56052;BME280;41919;42.648;23.384;2022-12-07T02:05:53;94519.31;;;6.21;85.16
56052;BME280;41919;42.648;23.384;2022-12-07T02:08:19;94525.25;;;6.30;84.60
56052;BME280;41919;42.648;23.384;2022-12-07T02:10:44;94520.97;;;6.37;84.17
56052;BME280;41919;42.648;23.384;2022-12-07T02:13:11;94513.09;;;6.45;83.72
56052;BME280;41919;42.648;23.384;2022-12-07T02:23:35;94528.28;;;6.63;82.69
56052;BME280;41919;42.648;23.384;2022-12-07T02:26:10;94525.53;;;6.64;81.84
56052;BME280;41919;42.648;23.384;2022-12-07T02:29:06;94528.75;;;6.66;81.69
56052;BME280;41919;42.648;23.384;2022-12-07T02:31:35;94520.22;;;6.73;81.62
56052;BME280;41919;42.648;23.384;2022-12-07T02:34:08;94508.88;;;6.74;81.60
56052;BME280;41919;42.648;23.384;2022-12-07T02:36:37;94510.72;;;6.80;81.50
56052;BME280;41919;42.648;23.384;2022-12-07T02:41:36;94502.78;;;6.66;81.84
56052;BME280;41919;42.648;23.384;2022-12-07T02:44:07;94500.91;;;6.60;82.58
56052;BME280;41919;42.648;23.384;2022-12-07T02:46:38;94502.22;;;6.71;82.11
56052;BME280;41919;42.648;23.384;2022-12-07T02:49:05;94500.91;;;6.75;81.87
56052;BME280;41919;42.648;23.384;2022-12-07T02:51:32;94512.72;;;6.78;82.10
56052;BME280;41919;42.648;23.384;2022-12-07T02:53:58;94511.19;;;6.83;81.58
56052;BME280;41919;42.648;23.384;2022-12-07T03:09:43;94482.78;;;6.82;81.69
56052;BME280;41919;42.648;23.384;2022-12-07T03:12:12;94484.75;;;6.80;81.66
56052;BME280;41919;42.648;23.384;2022-12-07T03:14:41;94483.00;;;6.65;82.23
56052;BME280;41919;42.648;23.384;2022-12-07T03:17:13;94485.84;;;6.71;82.23
56052;BME280;41919;42.648;23.384;2022-12-07T03:19:39;94483.88;;;6.73;81.81
56052;BME280;41919;42.648;23.384;2022-12-07T03:22:07;94483.41;;;6.69;81.93
56052;BME280;41919;42.648;23.384;2022-12-07T03:24:36;94489.06;;;6.73;81.60
56052;BME280;41919;42.648;23.384;2022-12-07T03:27:13;94478.50;;;6.74;81.07
56052;BME280;41919;42.648;23.384;2022-12-07T03:29:43;94482.28;;;6.72;81.29
56052;BME280;41919;42.648;23.384;2022-12-07T03:32:14;94483.88;;;6.73;81.46
56052;BME280;41919;42.648;23.384;2022-12-07T03:34:50;94481.44;;;6.71;81.48
56052;BME280;41919;42.648;23.384;2022-12-07T03:37:39;94483.06;;;6.72;81.37
56052;BME280;41919;42.648;23.384;2022-12-07T03:40:06;94484.69;;;6.73;81.31
56052;BME280;41919;42.648;23.384;2022-12-07T03:42:33;94483.88;;;6.73;81.50
56052;BME280;41919;42.648;23.384;2022-12-07T03:44:59;94491.75;;;6.64;81.62
56052;BME280;41919;42.648;23.384;2022-12-07T03:49:51;94488.81;;;6.67;81.81
56052;BME280;41919;42.648;23.384;2022-12-07T03:52:22;94483.00;;;6.65;81.97
56052;BME280;41919;42.648;23.384;2022-12-07T03:57:17;94482.00;;;6.66;81.75
56052;BME280;41919;42.648;23.384;2022-12-07T03:59:43;94479.34;;;6.60;81.82
56052;BME280;41919;42.648;23.384;2022-12-07T04:02:08;94478.72;;;6.58;82.10
56052;BME280;41919;42.648;23.384;2022-12-07T04:04:36;94478.88;;;6.56;82.11
56052;BME280;41919;42.648;23.384;2022-12-07T04:07:01;94475.28;;;6.57;82.13
56052;BME280;41919;42.648;23.384;2022-12-07T04:09:27;94476.13;;;6.58;82.32
56052;BME280;41919;42.648;23.384;2022-12-07T04:11:52;94476.13;;;6.58;82.35
56052;BME280;41919;42.648;23.384;2022-12-07T04:14:17;94476.28;;;6.56;82.39
56052;BME280;41919;42.648;23.384;2022-12-07T04:16:46;94477.25;;;6.55;82.09
56052;BME280;41919;42.648;23.384;2022-12-07T04:19:12;94480.03;;;6.54;81.84
56052;BME280;41919;42.648;23.384;2022-12-07T04:21:37;94473.06;;;6.54;81.83
56052;BME280;41919;42.648;23.384;2022-12-07T04:24:03;94465.81;;;6.50;81.72
56052;BME280;41919;42.648;23.384;2022-12-07T04:26:28;94470.31;;;6.41;82.08
56052;BME280;41919;42.648;23.384;2022-12-07T04:28:54;94479.78;;;6.34;82.35
56052;BME280;41919;42.648;23.384;2022-12-07T04:31:19;94479.06;;;6.40;82.74
56052;BME280;41919;42.648;23.384;2022-12-07T04:33:44;94475.13;;;6.44;82.26
56052;BME280;41919;42.648;23.384;2022-12-07T04:36:10;94482.28;;;6.42;82.60
56052;BME280;41919;42.648;23.384;2022-12-07T04:38:35;94483.00;;;6.36;82.83
56052;BME280;41919;42.648;23.384;2022-12-07T04:41:06;94483.19;;;6.34;82.91
56052;BME280;41919;42.648;23.384;2022-12-07T04:43:32;94488.19;;;6.36;82.82
56052;BME280;41919;42.648;23.384;2022-12-07T04:45:57;94498.56;;;6.36;82.95
56052;BME280;41919;42.648;23.384;2022-12-07T04:48:23;94491.75;;;6.35;83.07
56052;BME280;41919;42.648;23.384;2022-12-07T04:50:48;94485.25;;;6.39;83.08
56052;BME280;41919;42.648;23.384;2022-12-07T04:53:14;94494.00;;;6.38;82.67
56052;BME280;41919;42.648;23.384;2022-12-07T04:55:40;94492.41;;;6.37;82.82
56052;BME280;41919;42.648;23.384;2022-12-07T04:58:05;94489.44;;;6.40;82.30
56052;BME280;41919;42.648;23.384;2022-12-07T05:00:30;94487.22;;;6.37;82.69
56052;BME280;41919;42.648;23.384;2022-12-07T05:02:55;94492.59;;;6.35;82.87
56052;BME280;41919;42.648;23.384;2022-12-07T05:05:21;94486.56;;;6.35;82.71
56052;BME280;41919;42.648;23.384;2022-12-07T05:07:46;94490.63;;;6.37;82.49
56052;BME280;41919;42.648;23.384;2022-12-07T05:10:11;94489.00;;;6.36;82.39
56052;BME280;41919;42.648;23.384;2022-12-07T05:12:36;94485.94;;;6.33;82.47
56052;BME280;41919;42.648;23.384;2022-12-07T05:15:02;94488.19;;;6.36;82.26
56052;BME280;41919;42.648;23.384;2022-12-07T05:17:27;94484.97;;;6.34;82.55
56052;BME280;41919;42.648;23.384;2022-12-07T05:19:52;94488.53;;;6.33;82.07
56052;BME280;41919;42.648;23.384;2022-12-07T05:22:18;94491.34;;;6.31;82.12
56052;BME280;41919;42.648;23.384;2022-12-07T05:24:43;94490.50;;;6.31;82.41
56052;BME280;41919;42.648;23.384;2022-12-07T05:27:08;94491.59;;;6.21;82.44
56052;BME280;41919;42.648;23.384;2022-12-07T05:29:33;94487.94;;;6.16;83.14
56052;BME280;41919;42.648;23.384;2022-12-07T05:31:59;94483.53;;;6.16;83.09
56052;BME280;41919;42.648;23.384;2022-12-07T05:34:24;94491.84;;;6.12;83.52
56052;BME280;41919;42.648;23.384;2022-12-07T05:36:49;94503.66;;;6.14;83.48
56052;BME280;41919;42.648;23.384;2022-12-07T05:39:15;94502.66;;;6.15;83.60
56052;BME280;41919;42.648;23.384;2022-12-07T05:41:40;94494.72;;;6.17;83.58
56052;BME280;41919;42.648;23.384;2022-12-07T05:44:24;94479.16;;;6.17;83.51
56052;BME280;41919;42.648;23.384;2022-12-07T05:46:53;94480.78;;;6.18;83.41
56052;BME280;41919;42.648;23.384;2022-12-07T05:49:18;94485.75;;;6.19;83.69
56052;BME280;41919;42.648;23.384;2022-12-07T05:51:43;94480.41;;;6.21;83.77
56052;BME280;41919;42.648;23.384;2022-12-07T05:54:09;94490.44;;;6.24;83.54
56052;BME280;41919;42.648;23.384;2022-12-07T05:56:34;94483.09;;;6.27;83.24
56052;BME280;41919;42.648;23.384;2022-12-07T05:58:59;94481.66;;;6.25;83.40
56052;BME280;41919;42.648;23.384;2022-12-07T06:01:43;94480.03;;;6.09;89.41
56052;BME280;41919;42.648;23.384;2022-12-07T06:04:09;94478.81;;;6.20;89.53
56052;BME280;41919;42.648;23.384;2022-12-07T06:06:34;94480.34;;;6.29;86.64
56052;BME280;41919;42.648;23.384;2022-12-07T06:08:59;94485.78;;;6.34;85.23
56052;BME280;41919;42.648;23.384;2022-12-07T06:11:25;94479.16;;;6.32;84.63
56052;BME280;41919;42.648;23.384;2022-12-07T06:14:09;94429.03;;;6.01;84.08
56052;BME280;41919;42.648;23.384;2022-12-07T06:16:34;94479.69;;;6.27;84.15
56052;BME280;41919;42.648;23.384;2022-12-07T06:18:59;94474.59;;;6.34;84.17
56052;BME280;41919;42.648;23.384;2022-12-07T06:21:25;94478.38;;;6.31;84.17
56052;BME280;41919;42.648;23.384;2022-12-07T06:23:53;94489.97;;;6.20;84.08
56052;BME280;41919;42.648;23.384;2022-12-07T06:26:18;94485.31;;;6.31;84.01
56052;BME280;41919;42.648;23.384;2022-12-07T06:28:44;94487.13;;;6.45;83.37
56052;BME280;41919;42.648;23.384;2022-12-07T06:31:09;94494.47;;;6.56;82.95
56052;BME280;41919;42.648;23.384;2022-12-07T06:33:34;94501.63;;;6.54;82.81
56052;BME280;41919;42.648;23.384;2022-12-07T06:36:00;94491.69;;;6.58;82.85
56052;BME280;41919;42.648;23.384;2022-12-07T06:38:25;94494.63;;;6.70;82.57
56052;BME280;41919;42.648;23.384;2022-12-07T06:40:50;94493.97;;;6.82;82.31
56052;BME280;41919;42.648;23.384;2022-12-07T06:43:15;94440.47;;;6.52;82.01
56052;BME280;41919;42.648;23.384;2022-12-07T06:45:41;94490.13;;;6.93;82.09
56052;BME280;41919;42.648;23.384;2022-12-07T06:48:06;94489.13;;;6.94;82.23
56052;BME280;41919;42.648;23.384;2022-12-07T06:50:32;94501.06;;;6.74;82.93
56052;BME280;41919;42.648;23.384;2022-12-07T06:52:57;94498.75;;;6.64;83.91
56052;BME280;41919;42.648;23.384;2022-12-07T06:55:22;94497.75;;;6.80;83.47
56052;BME280;41919;42.648;23.384;2022-12-07T06:57:47;94491.00;;;7.00;82.64
56052;BME280;41919;42.648;23.384;2022-12-07T07:00:13;94498.56;;;7.17;81.68
56052;BME280;41919;42.648;23.384;2022-12-07T07:02:38;94506.00;;;7.20;81.98
56052;BME280;41919;42.648;23.384;2022-12-07T07:05:03;94493.50;;;7.30;81.12
56052;BME280;41919;42.648;23.384;2022-12-07T07:07:29;94496.22;;;7.43;80.49
56052;BME280;41919;42.648;23.384;2022-12-07T07:09:54;94447.94;;;7.13;80.34
56052;BME280;41919;42.648;23.384;2022-12-07T07:12:19;94503.84;;;7.23;81.21
56052;BME280;41919;42.648;23.384;2022-12-07T07:14:45;94495.25;;;7.23;81.04
56052;BME280;41919;42.648;23.384;2022-12-07T07:17:10;94496.84;;;7.24;80.91
56052;BME280;41919;42.648;23.384;2022-12-07T07:19:35;94502.97;;;7.38;80.53
56052;BME280;41919;42.648;23.384;2022-12-07T07:22:02;94506.00;;;7.41;80.47
56052;BME280;41919;42.648;23.384;2022-12-07T07:24:27;94502.44;;;7.42;80.03
56052;BME280;41919;42.648;23.384;2022-12-07T07:26:53;94503.41;;;7.63;79.10
56052;BME280;41919;42.648;23.384;2022-12-07T07:29:18;94504.75;;;7.80;77.94
56052;BME280;41919;42.648;23.384;2022-12-07T07:31:43;94510.34;;;7.77;81.44
56052;BME280;41919;42.648;23.384;2022-12-07T07:34:08;94503.84;;;7.88;84.22
56052;BME280;41919;42.648;23.384;2022-12-07T07:36:34;94511.94;;;8.00;81.02
56052;BME280;41919;42.648;23.384;2022-12-07T07:38:59;94514.31;;;8.51;77.87
56052;BME280;41919;42.648;23.384;2022-12-07T07:41:24;94517.16;;;8.98;74.38
56052;BME280;41919;42.648;23.384;2022-12-07T07:43:50;94516.28;;;9.32;71.92
56052;BME280;41919;42.648;23.384;2022-12-07T07:46:15;94512.00;;;9.18;71.35
56052;BME280;41919;42.648;23.384;2022-12-07T07:48:40;94507.19;;;9.15;71.30
56052;BME280;41919;42.648;23.384;2022-12-07T07:51:06;94507.91;;;9.77;69.44
56052;BME280;41919;42.648;23.384;2022-12-07T07:53:32;94507.28;;;9.68;68.61
56052;BME280;41919;42.648;23.384;2022-12-07T07:55:57;94505.00;;;9.25;69.82
56052;BME280;41919;42.648;23.384;2022-12-07T07:58:23;94503.59;;;8.74;72.08
56052;BME280;41919;42.648;23.384;2022-12-07T08:00:48;94502.31;;;8.57;73.32
56052;BME280;41919;42.648;23.384;2022-12-07T08:03:14;94514.09;;;9.56;70.83
56052;BME280;41919;42.648;23.384;2022-12-07T08:05:39;94509.03;;;10.81;66.63
56052;BME280;41919;42.648;23.384;2022-12-07T08:08:04;94499.91;;;11.04;63.84
56052;BME280;41919;42.648;23.384;2022-12-07T08:10:30;94513.34;;;10.42;66.98
56052;BME280;41919;42.648;23.384;2022-12-07T08:12:57;94515.75;;;9.84;66.84
56052;BME280;41919;42.648;23.384;2022-12-07T08:15:41;94513.16;;;10.04;66.46
56052;BME280;41919;42.648;23.384;2022-12-07T08:18:07;94508.34;;;10.20;65.52
56052;BME280;41919;42.648;23.384;2022-12-07T08:20:33;94508.50;;;10.12;66.14
56052;BME280;41919;42.648;23.384;2022-12-07T08:22:59;94511.94;;;10.19;65.87
56052;BME280;41919;42.648;23.384;2022-12-07T08:25:24;94499.84;;;10.65;64.97
56052;BME280;41919;42.648;23.384;2022-12-07T08:27:50;94505.31;;;10.37;66.03
56052;BME280;41919;42.648;23.384;2022-12-07T08:30:16;94461.53;;;10.19;66.82
56052;BME280;41919;42.648;23.384;2022-12-07T08:32:41;94496.00;;;11.26;62.88
56052;BME280;41919;42.648;23.384;2022-12-07T08:35:07;94497.75;;;12.03;60.50
56052;BME280;41919;42.648;23.384;2022-12-07T08:37:32;94496.63;;;13.77;56.29
56052;BME280;41919;42.648;23.384;2022-12-07T08:39:58;94492.72;;;14.80;51.02
56052;BME280;41919;42.648;23.384;2022-12-07T08:42:23;94490.22;;;14.74;50.70
56052;BME280;41919;42.648;23.384;2022-12-07T08:44:52;94489.63;;;14.24;51.91
56052;BME280;41919;42.648;23.384;2022-12-07T08:47:18;94497.59;;;13.94;51.99
56052;BME280;41919;42.648;23.384;2022-12-07T08:49:44;94487.28;;;13.39;53.29
56052;BME280;41919;42.648;23.384;2022-12-07T08:52:12;94486.00;;;12.74;55.61
56052;BME280;41919;42.648;23.384;2022-12-07T08:54:38;94488.66;;;12.05;57.97
56052;BME280;41919;42.648;23.384;2022-12-07T08:57:04;94484.44;;;11.72;59.55
56052;BME280;41919;42.648;23.384;2022-12-07T08:59:31;94428.75;;;10.30;62.99
56052;BME280;41919;42.648;23.384;2022-12-07T09:01:58;94480.44;;;10.01;65.68
56052;BME280;41919;42.648;23.384;2022-12-07T09:04:23;94472.16;;;10.04;65.54
56052;BME280;41919;42.648;23.384;2022-12-07T09:06:48;94466.94;;;10.24;65.17
56052;BME280;41919;42.648;23.384;2022-12-07T09:09:14;94471.97;;;10.12;65.28
56052;BME280;41919;42.648;23.384;2022-12-07T09:11:39;94494.16;;;9.15;69.63
56052;BME280;41919;42.648;23.384;2022-12-07T09:14:05;94484.91;;;9.06;70.31
56052;BME280;41919;42.648;23.384;2022-12-07T09:16:30;94478.78;;;9.47;69.11
56052;BME280;41919;42.648;23.384;2022-12-07T09:18:55;94475.13;;;9.21;69.74
56052;BME280;41919;42.648;23.384;2022-12-07T09:21:21;94462.28;;;9.13;70.66
56052;BME280;41919;42.648;23.384;2022-12-07T09:23:46;94460.06;;;9.23;69.64
56052;BME280;41919;42.648;23.384;2022-12-07T09:26:11;94460.50;;;9.47;69.27
56052;BME280;41919;42.648;23.384;2022-12-07T09:28:37;94460.88;;;9.23;69.90
56052;BME280;41919;42.648;23.384;2022-12-07T09:31:02;94453.84;;;9.17;70.12
56052;BME280;41919;42.648;23.384;2022-12-07T09:33:28;94456.22;;;9.06;70.54
56052;BME280;41919;42.648;23.384;2022-12-07T09:35:53;94456.44;;;9.24;70.35
56052;BME280;41919;42.648;23.384;2022-12-07T09:38:19;94452.75;;;8.85;72.08
56052;BME280;41919;42.648;23.384;2022-12-07T09:40:44;94443.97;;;8.44;73.46
56052;BME280;41919;42.648;23.384;2022-12-07T09:43:28;94439.06;;;8.70;72.61
56052;BME280;41919;42.648;23.384;2022-12-07T09:45:54;94445.91;;;8.77;72.55
56052;BME280;41919;42.648;23.384;2022-12-07T09:48:24;94435.69;;;8.41;74.11
56052;BME280;41919;42.648;23.384;2022-12-07T09:50:50;94428.25;;;8.38;74.41
56052;BME280;41919;42.648;23.384;2022-12-07T09:53:36;94429.19;;;8.23;75.22
56052;BME280;41919;42.648;23.384;2022-12-07T09:56:02;94378.97;;;7.95;75.69
56052;BME280;41919;42.648;23.384;2022-12-07T09:58:28;94431.13;;;8.43;74.66
56052;BME280;41919;42.648;23.384;2022-12-07T10:01:28;94368.91;;;7.85;75.28
56052;BME280;41919;42.648;23.384;2022-12-07T10:03:53;94428.97;;;8.53;74.49
56052;BME280;41919;42.648;23.384;2022-12-07T10:06:19;94426.41;;;8.67;74.00
56052;BME280;41919;42.648;23.384;2022-12-07T10:08:45;94421.00;;;8.61;73.63
56052;BME280;41919;42.648;23.384;2022-12-07T10:11:11;94413.66;;;8.78;72.97
56052;BME280;41919;42.648;23.384;2022-12-07T10:13:38;94412.88;;;8.91;72.77
56052;BME280;41919;42.648;23.384;2022-12-07T10:16:04;94406.69;;;9.06;71.88
56052;BME280;41919;42.648;23.384;2022-12-07T10:18:37;94400.28;;;9.01;71.76
56052;BME280;41919;42.648;23.384;2022-12-07T10:23:28;94402.28;;;9.26;71.46
56052;BME280;41919;42.648;23.384;2022-12-07T10:25:54;94397.09;;;9.26;71.54
56052;BME280;41919;42.648;23.384;2022-12-07T10:28:20;94391.09;;;9.66;70.60
56052;BME280;41919;42.648;23.384;2022-12-07T10:30:58;94395.50;;;9.92;69.44
56052;BME280;41919;42.648;23.384;2022-12-07T10:35:55;94378.75;;;10.33;67.44
56052;BME280;41919;42.648;23.384;2022-12-07T10:38:21;94377.06;;;10.58;66.55
56052;BME280;41919;42.648;23.384;2022-12-07T10:40:46;94374.91;;;10.81;65.50
56052;BME280;41919;42.648;23.384;2022-12-07T10:51:23;94363.16;;;10.58;65.67
56052;BME280;41919;42.648;23.384;2022-12-07T11:01:34;94343.59;;;10.74;65.59
56052;BME280;41919;42.648;23.384;2022-12-07T11:09:24;94333.72;;;11.08;63.65
56052;BME280;41919;42.648;23.384;2022-12-07T11:14:49;94334.75;;;11.07;63.12
56052;BME280;41919;42.648;23.384;2022-12-07T11:17:25;94337.13;;;11.08;62.99
56052;BME280;41919;42.648;23.384;2022-12-07T11:22:55;94334.16;;;11.05;63.01
56052;BME280;41919;42.648;23.384;2022-12-07T11:30:28;94330.31;;;11.07;62.45
56052;BME280;41919;42.648;23.384;2022-12-07T11:37:51;94303.63;;;10.67;64.56
56052;BME280;41919;42.648;23.384;2022-12-07T11:40:24;94298.78;;;10.70;64.45
56052;BME280;41919;42.648;23.384;2022-12-07T11:42:56;94299.34;;;10.40;65.28
56052;BME280;41919;42.648;23.384;2022-12-07T11:45:27;94292.09;;;10.43;65.34
56052;BME280;41919;42.648;23.384;2022-12-07T11:50:21;94289.41;;;10.56;65.12
56052;BME280;41919;42.648;23.384;2022-12-07T11:53:10;94290.66;;;10.47;65.11
56052;BME280;41919;42.648;23.384;2022-12-07T12:03:48;94278.69;;;10.96;63.70
56052;BME280;41919;42.648;23.384;2022-12-07T12:06:14;94282.09;;;10.96;63.80
56052;BME280;41919;42.648;23.384;2022-12-07T12:08:41;94276.06;;;11.03;63.34
56052;BME280;41919;42.648;23.384;2022-12-07T12:18:42;94262.25;;;11.14;62.89
56052;BME280;41919;42.648;23.384;2022-12-07T12:21:12;94259.91;;;11.06;63.17
56052;BME280;41919;42.648;23.384;2022-12-07T12:23:41;94244.22;;;11.06;62.89
56052;BME280;41919;42.648;23.384;2022-12-07T12:26:07;94245.03;;;11.06;63.07
56052;BME280;41919;42.648;23.384;2022-12-07T12:28:40;94254.28;;;11.09;62.90
56052;BME280;41919;42.648;23.384;2022-12-07T12:33:38;94250.09;;;11.26;63.05
56052;BME280;41919;42.648;23.384;2022-12-07T12:51:49;94226.94;;;10.79;63.90
56052;BME280;41919;42.648;23.384;2022-12-07T12:56:48;94237.63;;;11.03;62.83
56052;BME280;41919;42.648;23.384;2022-12-07T12:59:26;94231.75;;;11.08;63.08
56052;BME280;41919;42.648;23.384;2022-12-07T13:01:54;94233.25;;;11.22;62.19
56052;BME280;41919;42.648;23.384;2022-12-07T13:06:45;94228.09;;;11.34;61.59
56052;BME280;41919;42.648;23.384;2022-12-07T13:09:21;94228.38;;;11.44;61.81
56052;BME280;41919;42.648;23.384;2022-12-07T13:11:48;94228.00;;;11.41;61.61
56052;BME280;41919;42.648;23.384;2022-12-07T13:16:58;94224.34;;;11.23;62.40
56052;BME280;41919;42.648;23.384;2022-12-07T13:20:06;94227.50;;;11.32;62.10
56052;BME280;41919;42.648;23.384;2022-12-07T13:24:59;94231.88;;;11.38;62.52
56052;BME280;41919;42.648;23.384;2022-12-07T13:27:27;94227.44;;;11.38;62.05
56052;BME280;41919;42.648;23.384;2022-12-07T13:29:52;94230.63;;;11.41;62.36
56052;BME280;41919;42.648;23.384;2022-12-07T13:32:27;94238.81;;;11.51;61.84
56052;BME280;41919;42.648;23.384;2022-12-07T13:34:52;94232.91;;;11.12;63.14
56052;BME280;41919;42.648;23.384;2022-12-07T13:37:21;94229.44;;;10.93;64.63
56052;BME280;41919;42.648;23.384;2022-12-07T13:39:54;94226.31;;;10.84;64.83
56052;BME280;41919;42.648;23.384;2022-12-07T13:42:30;94220.59;;;10.69;65.40
56052;BME280;41919;42.648;23.384;2022-12-07T13:44:56;94218.00;;;10.62;65.93
56052;BME280;41919;42.648;23.384;2022-12-07T13:49:51;94216.69;;;10.53;66.79
56052;BME280;41919;42.648;23.384;2022-12-07T13:57:32;94216.53;;;10.41;67.03
56052;BME280;41919;42.648;23.384;2022-12-07T14:00:02;94208.25;;;10.51;66.78
56052;BME280;41919;42.648;23.384;2022-12-07T14:02:33;94205.34;;;10.34;67.20
56052;BME280;41919;42.648;23.384;2022-12-07T14:07:32;94211.09;;;10.43;67.11
56052;BME280;41919;42.648;23.384;2022-12-07T14:09:59;94217.69;;;10.52;66.70
56052;BME280;41919;42.648;23.384;2022-12-07T14:12:25;94222.88;;;10.58;67.09
56052;BME280;41919;42.648;23.384;2022-12-07T14:14:51;94212.56;;;10.64;66.57
56052;BME280;41919;42.648;23.384;2022-12-07T14:17:20;94215.94;;;10.71;66.51
56052;BME280;41919;42.648;23.384;2022-12-07T14:24:45;94227.47;;;10.88;65.97
56052;BME280;41919;42.648;23.384;2022-12-07T14:27:17;94225.44;;;10.90;65.93
56052;BME280;41919;42.648;23.384;2022-12-07T14:29:43;94223.25;;;10.87;65.92
56052;BME280;41919;42.648;23.384;2022-12-07T14:32:22;94224.06;;;10.88;65.88
56052;BME280;41919;42.648;23.384;2022-12-07T14:35:12;94224.28;;;10.86;65.77
56052;BME280;41919;42.648;23.384;2022-12-07T14:37:37;94225.94;;;10.81;66.21
56052;BME280;41919;42.648;23.384;2022-12-07T14:40:03;94229.19;;;10.76;66.59
56052;BME280;41919;42.648;23.384;2022-12-07T14:42:29;94218.34;;;10.72;66.83
56052;BME280;41919;42.648;23.384;2022-12-07T14:44:56;94215.94;;;10.71;66.73
56052;BME280;41919;42.648;23.384;2022-12-07T14:47:21;94218.38;;;10.66;67.04
56052;BME280;41919;42.648;23.384;2022-12-07T14:49:47;94221.28;;;10.57;67.53
56052;BME280;41919;42.648;23.384;2022-12-07T14:52:23;94220.47;;;10.57;67.53
56052;BME280;41919;42.648;23.384;2022-12-07T14:54:49;94217.09;;;10.50;68.09
56052;BME280;41919;42.648;23.384;2022-12-07T14:57:15;94229.97;;;10.45;67.93
56052;BME280;41919;42.648;23.384;2022-12-07T14:59:40;94226.97;;;10.41;68.08
56052;BME280;41919;42.648;23.384;2022-12-07T15:02:06;94232.66;;;10.38;68.30
56052;BME280;41919;42.648;23.384;2022-12-07T15:04:31;94234.66;;;10.36;68.66
56052;BME280;41919;42.648;23.384;2022-12-07T15:06:57;94237.09;;;10.31;68.85
56052;BME280;41919;42.648;23.384;2022-12-07T15:09:22;94243.16;;;10.18;69.44
56052;BME280;41919;42.648;23.384;2022-12-07T15:11:47;94241.19;;;10.13;69.33
56052;BME280;41919;42.648;23.384;2022-12-07T15:14:13;94234.56;;;10.11;69.46